ADDS METAR Data INFO
IDs: Format: Raw Decoded Include TAF

Data at: 1540 UTC 18 Nov 2017

METAR for:KCMH (Columbus Intl, OH, US)
Text:KCMH 181451Z 11008KT 10SM OVC033 10/08 A2953 RMK AO2 LTG DSNT NE SLP001 T01000083 58024
Temperature: 10.0°C ( 50°F)
Dewpoint: 8.3°C ( 47°F) [RH = 89%]
Pressure (altimeter):29.53 inches Hg (1000.1 mb) [Sea level pressure: 1000.1 mb]
Winds:from the ESE (110 degrees) at 9 MPH (8 knots; 4.1 m/s)
Visibility:10 or more sm (16+ km)
Ceiling:3300 feet AGL
Clouds: overcast cloud deck at 3300 feet AGL